Airfield :
LOGIN :

Register | Disclaimer

   EN    FR    IT 

 










Legend :    VFR   Marginal VFR   IFR   Intensive IFR   Very Intensive IFR
Visi :
Ceiling :
>= 8 km
>= 3000ft
5 to 8 km
1000 to 3000 ft
1500m to 5 km
500 to 1000 ft
800 to 1500m
200 to 500 ft
< 800m
< 200 ft
Symbols :   Thunderstorms  Fog  Heavy snow  Heavy precipitations  Wind > 20 kt
SIGMETs :     Misc.  Thunderstorms  Icing  Turbulence  Mountain Waves  Volcanic Ashes







- Airport Elevation : 362 ft
- IATA code : WAW


EPWA - Warsaw Okecie

CURRENT METAR :
  • 201900Z 28005KT 250V320 9999 FEW035 BKN047 02/M00 Q1010 R88/2///95 NOSIG

EXPIRED METARs :
  • 201830Z 28005KT 250V310 9999 SCT036 02/M01 Q1010 R88/2///95 NOSIG
  • 201800Z 28005KT 9999 FEW036 02/M00 Q1010 R88/2///95 NOSIG
  • 201730Z 29006KT CAVOK 02/M01 Q1010 R88/2///95 NOSIG
  • 201700Z 28007KT 250V310 9999 FEW039 02/M01 Q1010 R88/2///95 NOSIG
  • 201630Z 28007KT 250V310 9999 SCT038 02/M01 Q1010 R88/2///95 NOSIG

TAF TAF EPWA
Valid from the 20 at 18:00 until the 21 at 18:00 UTC


201730Z 2018/2118 27007KT 9999 BKN030
PROB40
TEMPO 2018/2022 4000 -SHRASN BKN009 BKN014TCU
PROB40
TEMPO 2022/2109 SCT007 BKN014
No reported NOTAMs for that airfield.



MET'MAP, your aeronautical weather chart ! - Copyright ORBIFLY December 2007 - Disclaimer

ORBIFLY MET'MAP TEAM :

Programming & Development : Alexandra Zaïnal
Concept & Development : Baudouin d'Aumeries
Co-Development & Prog : Marc-Olivier Méhu
Technical & hardware support : Manuel Goepfert

Contact : metmap@orbifly.com




SOURCES & CREDITS :

   NOAA